createdAt,value
2018-02-11T00:01:48.468Z,7.20
2018-02-11T00:04:15.976Z,7.70
2018-02-11T00:06:43.462Z,6.90
2018-02-11T00:09:10.952Z,8.25
2018-02-11T00:11:38.446Z,7.10
2018-02-11T00:14:06.095Z,7.05
2018-02-11T00:16:33.597Z,7.65
2018-02-11T00:19:01.076Z,7.80
2018-02-11T00:21:28.572Z,8.40
2018-02-11T00:23:56.240Z,9.13
2018-02-11T00:26:23.731Z,7.68
2018-02-11T00:28:51.212Z,8.30
2018-02-11T00:31:18.709Z,9.18
2018-02-11T00:33:46.674Z,8.07
2018-02-11T00:36:14.164Z,8.07
2018-02-11T00:38:42.040Z,7.85
2018-02-11T00:41:09.533Z,7.78
2018-02-11T00:43:37.028Z,7.60
2018-02-11T00:46:04.519Z,7.78
2018-02-11T00:48:32.004Z,8.38
2018-02-11T00:50:59.580Z,8.80
2018-02-11T00:53:27.055Z,7.43
2018-02-11T00:55:54.992Z,8.18
2018-02-11T00:58:22.456Z,8.02
2018-02-11T01:00:49.952Z,7.50
2018-02-11T01:03:17.432Z,8.40
2018-02-11T01:05:44.927Z,8.80
2018-02-11T01:08:12.823Z,9.30
2018-02-11T01:10:40.316Z,9.52
2018-02-11T01:13:07.796Z,8.95
2018-02-11T01:15:35.296Z,9.48
2018-02-11T01:18:02.770Z,9.02
2018-02-11T01:20:30.261Z,10.20
2018-02-11T01:22:58.155Z,8.00
2018-02-11T01:25:25.699Z,10.07
2018-02-11T01:27:53.587Z,8.32
2018-02-11T01:30:21.454Z,9.45
2018-02-11T01:32:48.956Z,9.50
2018-02-11T01:35:16.436Z,9.15
2018-02-11T01:37:43.932Z,8.60
2018-02-11T01:40:11.409Z,8.10
2018-02-11T01:42:38.904Z,9.50
2018-02-11T01:45:06.384Z,9.25
2018-02-11T01:47:34.276Z,9.88
2018-02-11T01:50:14.096Z,9.85
2018-02-11T01:52:41.586Z,11.32
2018-02-11T01:55:09.088Z,9.15
2018-02-11T01:57:36.575Z,8.63
2018-02-11T02:00:04.060Z,9.05
2018-02-11T02:02:31.559Z,10.63
2018-02-11T02:04:59.135Z,9.68
2018-02-11T02:07:26.636Z,10.52
2018-02-11T02:09:54.106Z,8.93
2018-02-11T02:12:21.599Z,9.13
2018-02-11T02:14:49.085Z,9.50
2018-02-11T02:17:16.584Z,10.75
2018-02-11T02:19:44.068Z,9.43
2018-02-11T02:22:11.954Z,8.82
2018-02-11T02:24:39.833Z,10.50
2018-02-11T02:27:07.728Z,10.82
2018-02-11T02:29:35.372Z,10.13
2018-02-11T02:32:02.953Z,9.82
2018-02-11T02:34:30.822Z,9.95
2018-02-11T02:36:58.320Z,9.50
2018-02-11T02:39:25.853Z,10.02
2018-02-11T02:41:53.348Z,10.52
2018-02-11T02:44:20.839Z,9.95
2018-02-11T02:46:48.387Z,8.77
2018-02-11T02:49:16.255Z,10.80
2018-02-11T02:51:43.837Z,10.77
2018-02-11T02:54:11.409Z,10.52
2018-02-11T02:56:38.979Z,11.38
2018-02-11T02:59:06.480Z,11.25
2018-02-11T03:01:33.954Z,9.20
2018-02-11T03:04:01.456Z,10.35
2018-02-11T03:06:28.931Z,11.25
2018-02-11T03:08:56.428Z,12.68
2018-02-11T03:11:23.913Z,10.52
2018-02-11T03:13:51.808Z,11.73
2018-02-11T03:16:19.288Z,10.73
2018-02-11T03:18:46.784Z,10.25
2018-02-11T03:21:14.296Z,9.10
2018-02-11T03:23:41.863Z,9.45
2018-02-11T03:26:09.435Z,10.40
2018-02-11T03:28:36.934Z,9.63
2018-02-11T03:31:04.475Z,9.50
2018-02-11T03:33:31.976Z,7.80
2018-02-11T03:35:59.524Z,10.50
2018-02-11T03:38:27.417Z,9.45
2018-02-11T03:40:55.295Z,8.85
2018-02-11T03:43:22.856Z,9.13
2018-02-11T03:45:50.832Z,7.32
2018-02-11T03:48:18.333Z,7.75
2018-02-11T03:50:45.813Z,7.97
2018-02-11T03:53:13.308Z,7.75
2018-02-11T03:55:40.778Z,8.10
2018-02-11T03:58:08.280Z,9.95
2018-02-11T04:00:35.755Z,8.05
2018-02-11T04:03:03.251Z,8.98
2018-02-11T04:05:30.728Z,8.07
2018-02-11T04:07:58.258Z,8.40
2018-02-11T04:10:25.732Z,8.20
2018-02-11T04:12:53.311Z,8.13
2018-02-11T04:15:20.793Z,7.07
2018-02-11T04:17:48.686Z,7.95
2018-02-11T04:20:16.184Z,8.95
2018-02-11T04:22:43.707Z,6.90
2018-02-11T04:25:11.594Z,8.18
2018-02-11T04:27:39.476Z,6.78
2018-02-11T04:30:07.372Z,6.65
2018-02-11T04:32:34.852Z,7.40
2018-02-11T04:35:02.352Z,8.23
2018-02-11T04:37:29.827Z,6.45
2018-02-11T04:39:57.423Z,7.18
2018-02-11T04:42:24.897Z,6.32
2018-02-11T04:44:52.460Z,6.75
2018-02-11T04:47:19.944Z,7.45
2018-02-11T04:49:47.834Z,7.20
2018-02-11T04:52:15.708Z,7.05
2018-02-11T04:54:43.670Z,6.45
2018-02-11T04:57:11.152Z,6.60
2018-02-11T04:59:38.724Z,6.53
2018-02-11T05:02:06.705Z,5.87
2018-02-11T05:04:34.582Z,6.57
2018-02-11T05:07:02.050Z,6.07
2018-02-11T05:09:29.548Z,6.45
2018-02-11T05:11:57.026Z,5.85
2018-02-11T05:14:24.568Z,6.53
2018-02-11T05:16:52.044Z,6.05
2018-02-11T05:19:19.936Z,5.82
2018-02-11T05:21:47.892Z,5.70
2018-02-11T05:24:15.462Z,5.57
2018-02-11T05:26:42.937Z,5.10
2018-02-11T05:29:10.508Z,5.10
2018-02-11T05:31:37.978Z,4.30
2018-02-11T05:34:05.470Z,5.78
2018-02-11T05:36:33.536Z,4.50
2018-02-11T05:39:01.095Z,5.35
2018-02-11T05:41:28.576Z,4.75
2018-02-11T05:43:56.056Z,4.80
2018-02-11T05:46:23.957Z,4.85
2018-02-11T05:48:51.430Z,5.37
2018-02-11T05:51:18.916Z,4.35
2018-02-11T05:53:46.399Z,5.22
2018-02-11T05:56:13.900Z,4.15
2018-02-11T05:58:41.373Z,5.00
2018-02-11T06:01:08.861Z,4.72
2018-02-11T06:03:36.731Z,4.40
2018-02-11T06:06:04.607Z,4.62
2018-02-11T06:08:32.480Z,4.40
2018-02-11T06:10:59.979Z,4.20
2018-02-11T06:13:27.523Z,4.82
2018-02-11T06:15:55.101Z,4.10
2018-02-11T06:18:22.572Z,4.22
2018-02-11T06:20:50.143Z,4.37
2018-02-11T06:23:17.712Z,3.55
2018-02-11T06:25:45.284Z,3.42
2018-02-11T06:28:12.756Z,5.25
2018-02-11T06:30:40.246Z,3.50
2018-02-11T06:33:08.111Z,3.60
2018-02-11T06:35:35.988Z,4.60
2018-02-11T06:38:03.859Z,3.87
2018-02-11T06:40:31.350Z,3.62
2018-02-11T06:42:59.215Z,3.53
2018-02-11T06:45:26.711Z,3.75
2018-02-11T06:47:54.189Z,3.58
2018-02-11T06:50:21.696Z,3.65
2018-02-11T06:52:49.200Z,4.15
2018-02-11T06:55:16.715Z,3.85
2018-02-11T06:57:44.187Z,3.35
2018-02-11T07:00:11.702Z,3.67
2018-02-11T07:02:39.175Z,3.85
2018-02-11T07:05:06.664Z,3.40
2018-02-11T07:07:34.540Z,2.85
2018-02-11T07:10:02.412Z,2.80
2018-02-11T07:12:29.899Z,2.90
2018-02-11T07:14:57.856Z,2.75
2018-02-11T07:17:25.352Z,2.67
2018-02-11T07:19:52.833Z,3.22
2018-02-11T07:22:20.324Z,2.85
2018-02-11T07:24:47.840Z,2.28
2018-02-11T07:27:15.353Z,2.65
2018-02-11T07:29:42.840Z,2.30
2018-02-11T07:32:10.335Z,1.92
2018-02-11T07:34:37.807Z,1.90
2018-02-11T07:37:05.391Z,2.60
2018-02-11T07:39:32.967Z,2.30
2018-02-11T07:42:00.470Z,2.40
2018-02-11T07:44:27.952Z,1.55
2018-02-11T07:46:55.449Z,1.50
2018-02-11T07:49:22.928Z,1.85
2018-02-11T07:51:50.416Z,1.30
2018-02-11T07:54:17.891Z,1.15
2018-02-11T07:56:45.388Z,1.05
2018-02-11T07:59:12.932Z,0.60
2018-02-11T08:01:40.499Z,0.73
2018-02-11T08:04:07.980Z,0.95
2018-02-11T08:06:35.863Z,0.75
2018-02-11T08:09:03.731Z,0.40
2018-02-11T08:11:31.621Z,0.55
2018-02-11T08:13:59.487Z,0.47
2018-02-11T08:16:27.023Z,0.60
2018-02-11T08:18:54.468Z,0.30
2018-02-11T08:21:22.009Z,0.47
2018-02-11T08:23:49.890Z,0.30
2018-02-11T08:26:17.864Z,0.57
2018-02-11T08:28:45.480Z,0.50
2018-02-11T08:31:13.416Z,0.60
2018-02-11T08:33:40.886Z,0.30
2018-02-11T08:36:08.364Z,0.32
2018-02-11T08:38:36.246Z,1.60
2018-02-11T08:41:04.124Z,0.40
2018-02-11T08:43:32.016Z,0.55
2018-02-11T08:45:59.980Z,0.60
2018-02-11T08:48:27.472Z,0.30
2018-02-11T08:50:55.342Z,0.70
2018-02-11T08:53:23.308Z,0.68
2018-02-11T08:55:50.779Z,0.75
2018-02-11T08:58:18.271Z,0.75
2018-02-11T09:00:46.139Z,0.50
2018-02-11T09:03:14.108Z,0.68
2018-02-11T09:05:41.585Z,0.77
2018-02-11T09:08:09.070Z,0.50
2018-02-11T09:10:36.944Z,0.70
2018-02-11T09:13:04.844Z,0.60
2018-02-11T09:15:32.318Z,0.60
2018-02-11T09:17:59.845Z,1.33
2018-02-11T09:20:27.429Z,1.02
2018-02-11T09:22:55.394Z,1.37
2018-02-11T09:25:22.862Z,1.20
2018-02-11T09:27:50.355Z,1.48
2018-02-11T09:30:18.224Z,1.08
2018-02-11T09:32:45.715Z,1.00
2018-02-11T09:35:13.584Z,1.73
2018-02-11T09:37:41.470Z,0.88
2018-02-11T09:40:09.334Z,1.30
2018-02-11T09:42:36.815Z,1.12
2018-02-11T09:45:04.725Z,0.90
2018-02-11T09:47:32.195Z,1.02
2018-02-11T09:49:59.681Z,1.27
2018-02-11T09:52:27.179Z,2.10
2018-02-11T09:54:54.659Z,3.67
2018-02-11T09:57:22.147Z,3.53
2018-02-11T09:59:50.024Z,2.10
2018-02-11T10:02:17.993Z,2.35
2018-02-11T10:04:45.475Z,1.65
2018-02-11T10:07:13.343Z,4.40
2018-02-11T10:09:40.924Z,1.27
2018-02-11T10:12:08.399Z,2.60
2018-02-11T10:14:36.301Z,3.30
2018-02-11T10:17:03.840Z,1.00
2018-02-11T10:19:31.416Z,1.35
2018-02-11T10:21:59.279Z,1.60
2018-02-11T10:24:26.762Z,1.87
2018-02-11T10:26:54.650Z,2.00
2018-02-11T10:29:22.625Z,1.37
2018-02-11T10:31:50.113Z,2.17
2018-02-11T10:34:17.996Z,2.05
2018-02-11T10:36:45.476Z,2.60
2018-02-11T10:39:12.958Z,2.65
2018-02-11T10:41:40.487Z,3.05
2018-02-11T10:44:07.997Z,2.60
2018-02-11T10:46:35.480Z,3.67
2018-02-11T10:49:02.978Z,3.30
2018-02-11T10:51:30.451Z,3.67
2018-02-11T10:53:57.951Z,4.35
2018-02-11T10:56:25.824Z,4.37
2018-02-11T10:58:53.712Z,5.97
2018-02-11T11:01:21.578Z,3.92
2018-02-11T11:03:49.488Z,4.20
2018-02-11T11:06:16.968Z,6.07
2018-02-11T11:08:44.496Z,3.08
2018-02-11T11:11:11.967Z,3.90
2018-02-11T11:13:40.370Z,4.25
2018-02-11T11:16:08.344Z,4.22
2018-02-11T11:18:36.240Z,3.97
2018-02-11T11:21:04.118Z,4.30
2018-02-11T11:23:32.008Z,3.65
2018-02-11T11:25:59.552Z,4.00
2018-02-11T11:28:27.048Z,5.32
2018-02-11T11:30:54.529Z,7.97
2018-02-11T11:33:22.168Z,8.60
2018-02-11T11:35:49.663Z,8.75
2018-02-11T11:38:17.219Z,9.07
2018-02-11T11:40:45.102Z,10.90
2018-02-11T11:43:12.979Z,8.30
2018-02-11T11:45:40.873Z,8.85
2018-02-11T11:48:08.352Z,8.68
2018-02-11T11:50:35.851Z,6.20
2018-02-11T11:53:03.332Z,5.90
2018-02-11T11:55:30.823Z,5.78
2018-02-11T11:57:58.304Z,6.22
2018-02-11T12:00:26.284Z,6.00
2018-02-11T12:02:54.152Z,5.07
2018-02-11T12:05:21.734Z,5.37
2018-02-11T12:07:49.202Z,4.60
2018-02-11T12:10:16.780Z,4.75
2018-02-11T12:12:44.647Z,5.18
2018-02-11T12:15:12.134Z,4.45
2018-02-11T12:17:40.009Z,4.57
2018-02-11T12:20:07.899Z,4.65
2018-02-11T12:22:35.767Z,4.10
2018-02-11T12:25:03.678Z,4.65
2018-02-11T12:27:31.216Z,4.60
2018-02-11T12:29:58.788Z,4.07
2018-02-11T12:32:26.671Z,5.15
2018-02-11T12:34:54.168Z,4.20
2018-02-11T12:37:21.644Z,4.57
2018-02-11T12:39:49.148Z,4.15
2018-02-11T12:42:16.628Z,5.35
2018-02-11T12:44:44.118Z,4.40
2018-02-11T12:47:11.599Z,4.18
2018-02-11T12:49:39.482Z,4.28
2018-02-11T12:52:07.456Z,4.75
2018-02-11T12:54:35.342Z,4.82
2018-02-11T12:57:02.811Z,4.05
2018-02-11T12:59:30.704Z,3.80
2018-02-11T13:01:58.183Z,4.10
2018-02-11T13:04:25.720Z,3.50
2018-02-11T13:06:53.288Z,3.78
2018-02-11T13:09:20.759Z,4.15
2018-02-11T13:11:48.336Z,4.30
2018-02-11T13:14:15.815Z,3.20
2018-02-11T13:16:43.699Z,4.65
2018-02-11T13:19:11.659Z,4.87
2018-02-11T13:21:39.154Z,5.30
2018-02-11T13:24:07.033Z,4.30
2018-02-11T13:26:34.919Z,4.20
2018-02-11T13:29:02.802Z,4.70
2018-02-11T13:31:30.344Z,4.35
2018-02-11T13:33:57.829Z,4.30
2018-02-11T13:36:25.720Z,4.80
2018-02-11T13:38:53.204Z,4.10
2018-02-11T13:41:20.699Z,5.65
2018-02-11T13:43:48.176Z,5.37
2018-02-11T13:46:15.672Z,4.45
2018-02-11T13:48:43.252Z,4.65
2018-02-11T13:51:10.739Z,4.57
2018-02-11T13:53:38.451Z,4.40
2018-02-11T13:56:06.784Z,4.50
2018-02-11T13:58:34.296Z,4.45
2018-02-11T14:01:01.792Z,4.95
2018-02-11T14:03:29.269Z,4.60
2018-02-11T14:05:56.764Z,5.18
2018-02-11T14:08:24.300Z,4.75
2018-02-11T14:10:51.792Z,4.93
2018-02-11T14:13:19.360Z,4.68
2018-02-11T14:15:46.855Z,3.95
2018-02-11T14:18:14.559Z,4.10
2018-02-11T14:20:42.063Z,3.20
2018-02-11T14:23:09.551Z,3.95
2018-02-11T14:25:37.043Z,3.87
2018-02-11T14:28:04.644Z,4.12
2018-02-11T14:30:32.191Z,2.53
2018-02-11T14:33:00.098Z,2.20
2018-02-11T14:35:27.575Z,2.67
2018-02-11T14:37:55.140Z,2.70
2018-02-11T14:40:22.652Z,2.55
2018-02-11T14:42:50.149Z,2.08
2018-02-11T14:45:17.624Z,5.20
2018-02-11T14:47:45.520Z,2.40
2018-02-11T14:50:13.391Z,2.50
2018-02-11T14:52:41.392Z,3.42
2018-02-11T14:55:08.936Z,3.03
2018-02-11T14:57:36.536Z,2.80
2018-02-11T15:00:04.056Z,3.40
2018-02-11T15:02:31.543Z,3.35
2018-02-11T15:04:59.024Z,3.72
2018-02-11T15:07:27.028Z,4.15
2018-02-11T15:09:54.570Z,3.75
2018-02-11T15:12:22.149Z,4.25
2018-02-11T15:14:50.024Z,3.80
2018-02-11T15:17:17.530Z,2.60
2018-02-11T15:19:45.028Z,3.62
2018-02-11T15:22:12.536Z,3.10
2018-02-11T15:24:40.035Z,2.80
2018-02-11T15:27:07.532Z,3.20
2018-02-11T15:29:35.039Z,3.75
2018-02-11T15:32:02.537Z,3.37
2018-02-11T15:34:30.495Z,4.35
2018-02-11T15:36:57.998Z,3.80
2018-02-11T15:39:25.524Z,3.65
2018-02-11T15:41:53.012Z,4.80
2018-02-11T15:44:20.578Z,4.57
2018-02-11T15:46:48.063Z,4.60
2018-02-11T15:49:15.937Z,4.05
2018-02-11T15:51:43.923Z,3.53
2018-02-11T15:54:11.844Z,5.28
2018-02-11T15:56:39.315Z,5.12
2018-02-11T15:59:06.852Z,4.78
2018-02-11T16:01:35.567Z,5.65
2018-02-11T16:04:03.113Z,7.03
2018-02-11T16:06:30.602Z,3.50
2018-02-11T16:08:58.155Z,5.22
2018-02-11T16:11:26.056Z,4.47
2018-02-11T16:13:53.601Z,4.97
2018-02-11T16:16:21.089Z,4.22
2018-02-11T16:18:48.981Z,4.10
2018-02-11T16:21:16.461Z,4.57
2018-02-11T16:23:43.950Z,5.10
2018-02-11T16:26:11.472Z,5.20
2018-02-11T16:28:39.367Z,4.95
2018-02-11T16:31:07.332Z,5.00
2018-02-11T16:33:35.407Z,5.20
2018-02-11T16:36:02.980Z,4.78
2018-02-11T16:38:30.584Z,5.50
2018-02-11T16:40:58.156Z,5.68
2018-02-11T16:43:25.656Z,5.37
2018-02-11T16:45:53.135Z,4.68
2018-02-11T16:48:20.636Z,5.45
2018-02-11T16:50:48.119Z,5.65
2018-02-11T16:53:16.008Z,5.25
2018-02-11T16:55:43.889Z,5.53
2018-02-11T16:58:11.789Z,5.45
2018-02-11T17:00:39.290Z,5.28
2018-02-11T17:03:06.779Z,5.90
2018-02-11T17:05:34.317Z,6.15
2018-02-11T17:08:01.812Z,5.53
2018-02-11T17:10:29.287Z,5.25
2018-02-11T17:12:56.797Z,4.80
2018-02-11T17:15:24.296Z,5.82
2018-02-11T17:17:51.819Z,5.72
2018-02-11T17:20:19.712Z,5.80
2018-02-11T17:22:47.684Z,4.90
2018-02-11T17:25:15.185Z,6.05
2018-02-11T17:27:42.660Z,6.20
2018-02-11T17:30:10.162Z,6.15
2018-02-11T17:32:37.636Z,5.35
2018-02-11T17:35:05.150Z,5.12
2018-02-11T17:37:33.018Z,5.57
2018-02-11T17:40:00.913Z,4.65
2018-02-11T17:42:28.378Z,6.53
2018-02-11T17:44:56.356Z,5.50
2018-02-11T17:47:24.317Z,7.05
2018-02-11T17:49:51.811Z,6.72
2018-02-11T17:52:19.679Z,7.85
2018-02-11T17:54:47.595Z,8.40
2018-02-11T17:57:15.106Z,8.55
2018-02-11T17:59:42.601Z,8.88
2018-02-11T18:02:10.476Z,7.68
2018-02-11T18:04:37.979Z,7.40
2018-02-11T18:07:05.457Z,7.18
2018-02-11T18:09:32.959Z,9.93
2018-02-11T18:12:00.472Z,8.45
2018-02-11T18:14:28.041Z,7.20
2018-02-11T18:16:55.915Z,6.87
2018-02-11T18:19:23.809Z,8.23
2018-02-11T18:21:51.292Z,10.95
2018-02-11T18:24:18.787Z,8.25
2018-02-11T18:26:46.267Z,8.80
2018-02-11T18:29:13.754Z,7.55
2018-02-11T18:31:41.228Z,3.90
2018-02-11T18:34:08.718Z,4.95
2018-02-11T18:36:36.591Z,3.80
2018-02-11T18:39:04.089Z,4.30
2018-02-11T18:41:31.554Z,4.45
2018-02-11T18:43:59.032Z,4.75
2018-02-11T18:46:26.528Z,6.82
2018-02-11T18:48:54.042Z,6.95
2018-02-11T18:51:21.514Z,6.75
2018-02-11T18:53:48.988Z,6.75
2018-02-11T18:56:16.489Z,6.12
2018-02-11T18:58:43.959Z,6.85
2018-02-11T19:01:11.449Z,5.37
2018-02-11T19:03:38.928Z,6.85
2018-02-11T19:06:06.430Z,6.65
2018-02-11T19:08:34.318Z,8.30
2018-02-11T19:11:02.216Z,7.40
2018-02-11T19:13:30.085Z,6.10
2018-02-11T19:15:57.976Z,5.62
2018-02-11T19:18:25.456Z,5.93
2018-02-11T19:20:52.952Z,6.90
2018-02-11T19:23:20.423Z,5.72
2018-02-11T19:25:47.911Z,5.85
2018-02-11T19:28:15.392Z,5.37
2018-02-11T19:30:42.878Z,5.50
2018-02-11T19:33:10.752Z,5.40
2018-02-11T19:35:38.243Z,4.50
2018-02-11T19:38:06.200Z,3.53
2018-02-11T19:40:33.689Z,4.22
2018-02-11T19:43:01.660Z,2.97
2018-02-11T19:45:29.552Z,3.80
2018-02-11T19:47:57.428Z,4.00
2018-02-11T19:50:24.934Z,3.60
2018-02-11T19:52:52.407Z,3.75
2018-02-11T19:55:19.890Z,3.50
2018-02-11T19:57:47.364Z,3.15
2018-02-11T20:00:14.857Z,3.62
2018-02-11T20:02:42.328Z,3.15
2018-02-11T20:05:09.908Z,3.37
2018-02-11T20:07:37.474Z,2.80
2018-02-11T20:10:05.059Z,2.60
2018-02-11T20:12:32.952Z,3.40
2018-02-11T20:15:00.823Z,3.05
2018-02-11T20:17:28.719Z,3.50
2018-02-11T20:19:56.191Z,3.03
2018-02-11T20:22:23.736Z,2.95
2018-02-11T20:24:51.211Z,2.70
2018-02-11T20:27:19.184Z,2.85
2018-02-11T20:29:46.768Z,2.20
2018-02-11T20:32:14.652Z,2.45
2018-02-11T20:34:42.514Z,3.47
2018-02-11T20:37:10.009Z,3.70
2018-02-11T20:39:37.492Z,3.80
2018-02-11T20:42:04.975Z,4.25
2018-02-11T20:44:32.447Z,4.20
2018-02-11T20:46:59.945Z,4.40
2018-02-11T20:49:27.422Z,4.15
2018-02-11T20:51:55.001Z,4.10
2018-02-11T20:54:22.497Z,4.35
2018-02-11T20:56:50.460Z,5.20
2018-02-11T20:59:18.036Z,5.80
2018-02-11T21:01:45.638Z,6.50
2018-02-11T21:04:13.182Z,5.47
2018-02-11T21:06:40.676Z,5.87
2018-02-11T21:09:08.224Z,5.68
2018-02-11T21:11:36.280Z,5.65
2018-02-11T21:14:03.746Z,5.82
2018-02-11T21:16:31.234Z,6.03
2018-02-11T21:18:58.719Z,6.50
2018-02-11T21:21:26.212Z,7.05
2018-02-11T21:23:53.763Z,6.20
2018-02-11T21:26:21.257Z,6.15
2018-02-11T21:28:48.740Z,6.15
2018-02-11T21:31:16.267Z,7.55
2018-02-11T21:33:43.752Z,6.12
2018-02-11T21:36:11.627Z,6.03
2018-02-11T21:38:39.512Z,5.87
2018-02-11T21:41:07.388Z,6.43
2018-02-11T21:43:35.266Z,7.28
2018-02-11T21:46:03.166Z,6.78
2018-02-11T21:48:30.662Z,7.40
2018-02-11T21:50:58.143Z,7.05
2018-02-11T21:53:25.659Z,6.40
2018-02-11T21:55:53.527Z,7.10
2018-02-11T21:58:21.020Z,8.32
2018-02-11T22:00:48.892Z,8.70
2018-02-11T22:03:16.863Z,8.25
2018-02-11T22:05:44.436Z,9.13
2018-02-11T22:08:11.936Z,8.18
2018-02-11T22:10:39.584Z,8.02
2018-02-11T22:13:07.476Z,8.90
2018-02-11T22:15:35.356Z,11.38
2018-02-11T22:18:03.324Z,8.00
2018-02-11T22:20:30.804Z,7.25
2018-02-11T22:22:58.722Z,6.05
2018-02-11T22:25:26.200Z,6.05
2018-02-11T22:27:53.686Z,6.35
2018-02-11T22:30:21.164Z,7.78
2018-02-11T22:32:48.658Z,5.53
2018-02-11T22:35:16.636Z,5.70
2018-02-11T22:37:44.203Z,5.35
2018-02-11T22:40:11.680Z,5.80
2018-02-11T22:42:39.581Z,6.90
2018-02-11T22:45:07.132Z,5.87
2018-02-11T22:47:34.623Z,8.80
2018-02-11T22:50:02.172Z,6.85
2018-02-11T22:52:29.743Z,6.07
2018-02-11T22:54:57.224Z,7.03
2018-02-11T22:57:25.108Z,6.68
2018-02-11T22:59:53.075Z,6.53
2018-02-11T23:02:20.959Z,7.62
2018-02-11T23:04:48.852Z,7.12
2018-02-11T23:07:16.814Z,6.30
2018-02-11T23:09:44.304Z,6.00
2018-02-11T23:12:12.179Z,6.72
2018-02-11T23:14:40.074Z,6.12
2018-02-11T23:17:07.610Z,6.12
2018-02-11T23:19:47.012Z,6.72
2018-02-11T23:22:14.492Z,6.40
2018-02-11T23:24:41.988Z,5.80
2018-02-11T23:27:09.484Z,4.97
2018-02-11T23:29:37.371Z,5.30
2018-02-11T23:32:05.344Z,5.50
2018-02-11T23:34:33.246Z,4.45
2018-02-11T23:37:00.796Z,4.05
2018-02-11T23:39:28.289Z,3.95
2018-02-11T23:41:55.779Z,4.43
2018-02-11T23:44:23.267Z,3.90
2018-02-11T23:46:50.740Z,4.20
2018-02-11T23:49:18.247Z,3.55
2018-02-11T23:51:45.816Z,3.67
2018-02-11T23:54:13.307Z,3.83
2018-02-11T23:56:41.184Z,4.18
2018-02-11T23:59:09.075Z,3.92
